Time;durP1;ratioP1;P1;durP2;ratioP2;P2;SDS_P1;SDS_P2;PMS_P1;PMS_P2;Temp;Humidity;BMP_temperature;BMP_pressure;BME280_temperature;BME280_humidity;BME280_pressure;Samples;Min_cycle;Max_cycle;Signal;HPM_P1;HPM_P2
2023/01/12 00:02:04;;;;;;;3.53;0.70;;;6.20;99.90;;;;;;5014582;28;20821;-75
2023/01/12 00:04:30;;;;;;;4.63;1.10;;;6.20;99.90;;;;;;5015113;28;20417;-75
2023/01/12 00:06:59;;;;;;;8.37;2.20;;;6.10;99.90;;;;;;5014873;28;20182;-75
2023/01/12 00:09:25;;;;;;;6.87;1.17;;;6.20;99.90;;;;;;5015014;28;20204;-75
2023/01/12 00:11:50;;;;;;;7.70;1.13;;;6.20;99.90;;;;;;5014657;28;20519;-74
2023/01/12 00:14:16;;;;;;;5.83;1.07;;;6.30;99.90;;;;;;5014797;28;20810;-75
2023/01/12 00:16:42;;;;;;;7.20;1.50;;;6.30;99.90;;;;;;5014805;28;20181;-74
2023/01/12 00:19:09;;;;;;;7.00;1.50;;;6.30;99.90;;;;;;5014916;28;20179;-75
2023/01/12 00:21:42;;;;;;;5.73;1.47;;;6.30;99.90;;;;;;5015261;28;20282;-75
2023/01/12 00:24:07;;;;;;;5.10;1.10;;;6.30;99.90;;;;;;5018447;28;20486;-75
2023/01/12 00:26:33;;;;;;;8.03;2.43;;;6.30;99.90;;;;;;5019550;28;20975;-76
2023/01/12 00:28:59;;;;;;;39.40;7.13;;;6.30;99.90;;;;;;5009049;28;20179;-76
2023/01/12 00:31:24;;;;;;;4.83;1.10;;;6.30;99.90;;;;;;5004464;28;20493;-75
2023/01/12 00:33:50;;;;;;;3.10;0.87;;;6.40;99.90;;;;;;5003585;28;20544;-75
2023/01/12 00:36:17;;;;;;;5.53;1.27;;;6.40;99.90;;;;;;5004117;28;20272;-76
2023/01/12 00:38:42;;;;;;;8.07;1.67;;;6.40;99.90;;;;;;5001880;28;20169;-76
2023/01/12 00:41:10;;;;;;;5.80;1.20;;;6.50;99.90;;;;;;4995188;28;20486;-76
2023/01/12 00:46:31;;;;;;;3.33;1.43;;;6.70;99.90;;;;;;5014471;28;20468;-76
2023/01/12 00:48:57;;;;;;;6.73;1.50;;;6.80;99.90;;;;;;5013557;28;20430;-76
2023/01/12 00:51:23;;;;;;;11.57;2.00;;;6.90;99.90;;;;;;5013518;28;20521;-76
2023/01/12 00:53:48;;;;;;;12.03;1.43;;;6.90;99.90;;;;;;5014187;28;20459;-76
2023/01/12 00:56:14;;;;;;;4.03;0.90;;;6.80;99.90;;;;;;5013978;28;20181;-76
2023/01/12 00:58:39;;;;;;;7.13;1.10;;;6.90;99.90;;;;;;5014267;28;20178;-76
2023/01/12 01:01:07;;;;;;;5.57;1.30;;;6.90;99.90;;;;;;5013589;28;20213;-75
2023/01/12 01:03:34;;;;;;;7.40;1.30;;;7.00;99.90;;;;;;5013116;28;20813;-76
2023/01/12 01:06:04;;;;;;;3.23;1.03;;;7.00;99.90;;;;;;5013643;28;20432;-76
2023/01/12 01:08:30;;;;;;;5.80;1.50;;;7.00;99.90;;;;;;4994749;28;20425;-76
2023/01/12 01:11:05;;;;;;;3.30;1.10;;;7.00;99.90;;;;;;4992152;28;20463;-76
2023/01/12 01:13:30;;;;;;;4.40;1.10;;;7.00;99.90;;;;;;5011993;28;20444;-76
2023/01/12 01:16:05;;;;;;;4.57;1.60;;;7.00;99.90;;;;;;5012570;28;20435;-76
2023/01/12 01:18:31;;;;;;;8.27;1.27;;;7.10;99.90;;;;;;5011956;28;20179;-76
2023/01/12 01:20:57;;;;;;;5.73;1.60;;;7.10;99.90;;;;;;5012594;28;20420;-76
2023/01/12 01:23:24;;;;;;;5.83;1.23;;;7.10;99.90;;;;;;5012938;28;20466;-75
2023/01/12 01:25:50;;;;;;;4.63;1.47;;;7.10;99.90;;;;;;5013633;28;20197;-75
2023/01/12 01:28:16;;;;;;;2.60;1.17;;;7.00;99.90;;;;;;5013540;28;20403;-75
2023/01/12 01:30:43;;;;;;;8.70;1.20;;;7.00;99.90;;;;;;5013376;28;20411;-74
2023/01/12 01:33:09;;;;;;;8.20;1.30;;;7.00;99.90;;;;;;5012836;28;20438;-75
2023/01/12 01:35:35;;;;;;;5.50;1.80;;;6.90;99.90;;;;;;5013461;28;20560;-75
2023/01/12 01:38:01;;;;;;;4.30;1.30;;;7.00;99.90;;;;;;5013264;28;20250;-75
2023/01/12 01:40:26;;;;;;;2.37;0.93;;;7.10;99.90;;;;;;5013227;28;20420;-75
2023/01/12 01:42:52;;;;;;;4.20;1.30;;;7.10;99.90;;;;;;5012626;28;20456;-76
2023/01/12 01:45:17;;;;;;;5.67;1.10;;;7.10;99.90;;;;;;5013229;28;20180;-75
2023/01/12 01:47:49;;;;;;;8.83;1.20;;;7.10;99.90;;;;;;5013259;28;20203;-75
2023/01/12 01:50:32;;;;;;;5.60;1.03;;;7.20;99.90;;;;;;5013303;28;20712;-75
2023/01/12 01:53:03;;;;;;;3.93;1.00;;;7.10;99.90;;;;;;5012599;28;20472;-75
2023/01/12 01:55:35;;;;;;;6.60;1.40;;;7.20;99.90;;;;;;5013083;28;20411;-75
2023/01/12 01:58:06;;;;;;;8.50;1.30;;;7.20;99.90;;;;;;5013073;28;20487;-75
2023/01/12 03:31:11;;;;;;;6.43;1.60;;;7.30;99.90;;;;;;6000197;22;21063;-76
2023/01/12 03:33:39;;;;;;;6.50;1.47;;;7.30;99.90;;;;;;5057474;28;20774;-76
2023/01/12 03:36:18;;;;;;;4.00;1.33;;;7.30;99.90;;;;;;5073492;28;20445;-78
2023/01/12 03:38:56;;;;;;;8.57;1.53;;;7.30;99.90;;;;;;5075450;28;20777;-75
2023/01/12 03:42:04;;;;;;;26.07;3.13;;;7.20;99.90;;;;;;5074937;28;20467;-76
2023/01/12 03:44:45;;;;;;;10.67;1.97;;;7.20;99.90;;;;;;5035130;28;20420;-76
2023/01/12 03:47:20;;;;;;;3.70;1.43;;;7.20;99.90;;;;;;5045891;28;20520;-76
2023/01/12 03:50:20;;;;;;;9.00;2.50;;;7.20;99.90;;;;;;5051482;28;20410;-74
2023/01/12 03:52:47;;;;;;;14.07;1.20;;;7.20;99.90;;;;;;5043859;28;20472;-76
2023/01/12 03:55:16;;;;;;;9.23;1.30;;;7.20;99.90;;;;;;5054876;28;20446;-75
2023/01/12 03:57:43;;;;;;;7.33;1.03;;;7.20;99.90;;;;;;5055086;28;20418;-73
2023/01/12 04:00:11;;;;;;;7.90;1.87;;;7.20;99.90;;;;;;5055021;28;20409;-73
2023/01/12 04:02:36;;;;;;;5.63;1.33;;;7.30;99.90;;;;;;5054783;28;20446;-73
2023/01/12 04:05:02;;;;;;;3.33;0.90;;;7.30;99.90;;;;;;5054750;28;20429;-73
2023/01/12 04:07:29;;;;;;;6.60;0.80;;;7.30;99.90;;;;;;5054598;28;20180;-73
2023/01/12 04:09:55;;;;;;;8.80;1.23;;;7.30;99.90;;;;;;5037206;28;20420;-74
2023/01/12 04:12:21;;;;;;;4.67;1.20;;;7.30;99.90;;;;;;5053737;28;20451;-74
2023/01/12 04:14:47;;;;;;;2.57;1.00;;;7.40;99.90;;;;;;5054607;28;20835;-73
2023/01/12 04:17:13;;;;;;;5.17;1.07;;;7.50;99.90;;;;;;5054585;28;20176;-74
2023/01/12 04:19:39;;;;;;;6.90;1.30;;;7.50;99.90;;;;;;5054430;28;20431;-73
2023/01/12 04:24:49;;;;;;;10.60;1.10;;;7.40;99.90;;;;;;5054724;28;20194;-73
2023/01/12 04:27:16;;;;;;;10.13;1.60;;;7.40;99.90;;;;;;5054250;28;20776;-73
2023/01/12 04:29:41;;;;;;;8.00;1.20;;;7.40;99.90;;;;;;5054520;28;20176;-73
2023/01/12 04:32:07;;;;;;;10.73;1.37;;;7.50;99.90;;;;;;5053598;28;20468;-73
2023/01/12 04:34:33;;;;;;;7.57;1.27;;;7.50;99.90;;;;;;5054314;28;20542;-73
2023/01/12 04:37:00;;;;;;;11.10;1.77;;;7.40;99.90;;;;;;5053915;28;20175;-72
2023/01/12 04:39:26;;;;;;;9.50;1.60;;;7.40;99.90;;;;;;5054160;28;20183;-74
2023/01/12 04:41:52;;;;;;;15.13;2.23;;;7.40;99.90;;;;;;5038090;28;20799;-73
2023/01/12 04:44:17;;;;;;;6.43;1.83;;;7.50;99.90;;;;;;5054072;28;20423;-72
2023/01/12 04:46:43;;;;;;;11.23;1.50;;;7.50;99.90;;;;;;5054439;28;20200;-73
2023/01/12 04:49:08;;;;;;;8.93;1.50;;;7.40;99.90;;;;;;5054348;28;20183;-73
2023/01/12 04:51:34;;;;;;;9.73;2.13;;;7.40;99.90;;;;;;5053713;28;20729;-74
2023/01/12 04:53:59;;;;;;;5.43;1.50;;;7.40;99.90;;;;;;5054477;28;20172;-72
2023/01/12 04:56:25;;;;;;;10.47;1.60;;;7.40;99.90;;;;;;5053664;28;20190;-73
2023/01/12 04:58:58;;;;;;;8.80;1.57;;;7.40;99.90;;;;;;5054169;28;20175;-74
2023/01/12 05:01:23;;;;;;;2.93;1.63;;;7.40;99.90;;;;;;5053534;28;20241;-74
2023/01/12 05:03:49;;;;;;;6.30;1.43;;;7.40;99.90;;;;;;5053934;28;20866;-75
2023/01/12 05:06:14;;;;;;;5.83;1.00;;;7.40;99.90;;;;;;5053496;28;20654;-74
2023/01/12 05:11:27;;;;;;;4.13;0.90;;;7.50;99.90;;;;;;5053493;28;20237;-74
2023/01/12 05:13:53;;;;;;;10.40;1.63;;;7.50;99.90;;;;;;5053781;28;20419;-75
2023/01/12 05:16:19;;;;;;;6.23;1.37;;;7.60;99.90;;;;;;5053600;28;20428;-75
2023/01/12 05:18:45;;;;;;;10.10;1.77;;;7.60;99.90;;;;;;5053830;28;20397;-75
2023/01/12 05:21:11;;;;;;;6.40;1.67;;;7.60;99.90;;;;;;5053415;28;20199;-74
2023/01/12 05:23:37;;;;;;;7.30;1.30;;;7.60;99.90;;;;;;5053524;28;20186;-75
2023/01/12 05:26:04;;;;;;;8.13;1.20;;;7.70;99.90;;;;;;5035498;28;20526;-75
2023/01/12 05:28:31;;;;;;;9.60;1.10;;;7.70;99.90;;;;;;5053682;28;20655;-75
2023/01/12 05:31:10;;;;;;;13.83;1.77;;;7.70;99.90;;;;;;5053136;28;20468;-75
2023/01/12 05:33:38;;;;;;;6.73;1.40;;;7.80;99.90;;;;;;5053513;28;20467;-75
2023/01/12 05:36:14;;;;;;;7.30;1.60;;;7.80;99.90;;;;;;5053574;28;20434;-75
2023/01/12 05:38:40;;;;;;;9.03;1.67;;;7.80;99.90;;;;;;5053458;28;20449;-74
2023/01/12 05:41:06;;;;;;;7.80;1.40;;;7.80;99.90;;;;;;5053194;28;20423;-75
2023/01/12 05:43:50;;;;;;;7.73;1.37;;;7.80;99.90;;;;;;5053400;28;20485;-75
2023/01/12 05:46:38;;;;;;;11.13;1.23;;;7.90;99.90;;;;;;5054761;28;20194;-75
2023/01/12 05:49:04;;;;;;;12.20;1.70;;;7.80;99.90;;;;;;5058203;28;20418;-75
2023/01/12 05:51:31;;;;;;;7.43;1.30;;;7.90;99.90;;;;;;5059650;28;20559;-75
2023/01/12 05:53:57;;;;;;;7.33;1.10;;;7.90;99.90;;;;;;5055597;28;20168;-75
2023/01/12 05:56:25;;;;;;;9.47;1.40;;;7.90;99.90;;;;;;5053458;28;20422;-75
2023/01/12 05:58:52;;;;;;;6.67;1.20;;;7.90;99.90;;;;;;5053115;28;20198;-75
2023/01/12 06:01:19;;;;;;;11.20;1.17;;;7.90;99.90;;;;;;5034867;28;20983;-75
2023/01/12 06:03:52;;;;;;;7.83;1.40;;;7.90;99.90;;;;;;5052411;28;20477;-75
2023/01/12 06:06:19;;;;;;;4.53;1.57;;;7.80;99.90;;;;;;5034533;28;20430;-74
2023/01/12 06:08:46;;;;;;;4.53;1.57;;;7.80;99.90;;;;;;5052742;28;20410;-74
2023/01/12 06:13:59;;;;;;;9.73;1.63;;;7.70;99.90;;;;;;4991862;28;20510;-74
2023/01/12 06:16:25;;;;;;;8.30;1.50;;;7.70;99.90;;;;;;5032348;28;20420;-74
2023/01/12 06:18:51;;;;;;;5.87;1.33;;;7.60;99.90;;;;;;5032811;28;20485;-75
2023/01/12 06:21:16;;;;;;;8.60;1.17;;;7.60;99.90;;;;;;5041990;28;20604;-75
2023/01/12 06:23:42;;;;;;;9.80;1.97;;;7.60;99.90;;;;;;5052374;28;20257;-75
2023/01/12 06:26:08;;;;;;;10.97;1.80;;;7.60;99.90;;;;;;5051875;28;20198;-75
2023/01/12 06:28:36;;;;;;;12.20;1.43;;;7.70;99.90;;;;;;5044669;28;20195;-75
2023/01/12 06:31:04;;;;;;;6.00;1.00;;;7.70;99.90;;;;;;5047946;28;20449;-75
2023/01/12 06:33:30;;;;;;;11.33;1.37;;;7.60;99.90;;;;;;5048853;28;20428;-75
2023/01/12 06:35:57;;;;;;;6.77;1.20;;;7.70;99.90;;;;;;5050998;28;20423;-74
2023/01/12 06:38:24;;;;;;;14.23;1.33;;;7.80;99.90;;;;;;5050476;28;20793;-74
2023/01/12 06:40:50;;;;;;;5.17;1.23;;;7.70;99.90;;;;;;5049879;28;20401;-74
2023/01/12 06:43:15;;;;;;;9.70;1.20;;;7.70;99.90;;;;;;5049820;28;20788;-74
2023/01/12 06:45:41;;;;;;;6.20;1.47;;;7.70;99.90;;;;;;5050406;28;20649;-74
2023/01/12 06:48:07;;;;;;;5.37;1.23;;;7.70;99.90;;;;;;5050270;28;20175;-74
2023/01/12 06:50:33;;;;;;;4.17;1.10;;;7.70;99.90;;;;;;5050328;28;20179;-74
2023/01/12 06:53:00;;;;;;;6.27;1.63;;;7.70;99.90;;;;;;5050864;28;20207;-75
2023/01/12 06:55:25;;;;;;;4.00;0.90;;;7.70;99.90;;;;;;5051724;28;20434;-75
2023/01/12 06:57:51;;;;;;;3.10;1.10;;;7.70;99.90;;;;;;5051889;28;20894;-74
2023/01/12 07:00:16;;;;;;;8.47;1.47;;;7.70;99.90;;;;;;5051596;28;20169;-74
2023/01/12 07:02:42;;;;;;;11.57;1.30;;;7.70;99.90;;;;;;5051848;28;20214;-74
2023/01/12 07:05:08;;;;;;;8.67;1.17;;;7.80;99.90;;;;;;5052282;28;20254;-74
2023/01/12 07:07:36;;;;;;;4.03;1.10;;;7.90;99.90;;;;;;5052823;28;20498;-74
2023/01/12 07:10:02;;;;;;;2.40;0.80;;;7.90;99.90;;;;;;5053040;28;20172;-75
2023/01/12 07:12:27;;;;;;;7.70;1.30;;;8.00;99.90;;;;;;5052097;28;20472;-75
2023/01/12 07:14:55;;;;;;;6.10;0.90;;;8.00;99.90;;;;;;5052111;28;20930;-75
2023/01/12 07:17:20;;;;;;;3.93;1.20;;;8.00;99.90;;;;;;5051887;28;20217;-75
2023/01/12 07:19:46;;;;;;;4.37;1.17;;;8.00;99.90;;;;;;5052278;28;20787;-75
2023/01/12 07:22:11;;;;;;;8.40;1.53;;;7.90;99.90;;;;;;5051523;28;20220;-75
2023/01/12 07:24:37;;;;;;;5.73;1.00;;;8.10;99.90;;;;;;5051904;28;20187;-75
2023/01/12 07:27:02;;;;;;;7.63;1.17;;;8.10;99.90;;;;;;5051824;28;20195;-76
2023/01/12 07:29:28;;;;;;;4.63;1.17;;;8.10;99.90;;;;;;5052060;28;20176;-75
2023/01/12 07:31:54;;;;;;;6.50;1.50;;;8.10;99.90;;;;;;5051259;28;20208;-75
2023/01/12 07:34:19;;;;;;;9.83;0.90;;;8.20;99.90;;;;;;5051758;28;20176;-75
2023/01/12 07:36:48;;;;;;;5.53;1.17;;;8.20;99.90;;;;;;5051552;28;20173;-75
2023/01/12 07:39:14;;;;;;;9.40;0.90;;;8.20;99.90;;;;;;5051663;28;20169;-75
2023/01/12 07:44:24;;;;;;;7.97;1.20;;;8.20;99.90;;;;;;5051524;28;20682;-75
2023/01/12 07:46:49;;;;;;;8.20;1.13;;;8.30;99.90;;;;;;5051372;28;20408;-75
2023/01/12 07:49:15;;;;;;;5.07;1.30;;;8.30;99.90;;;;;;5051428;28;20183;-74
2023/01/12 07:51:40;;;;;;;16.23;1.40;;;8.30;99.90;;;;;;5050984;28;20566;-74
2023/01/12 07:54:06;;;;;;;6.23;1.43;;;8.30;99.90;;;;;;5051420;28;20178;-75
2023/01/12 07:56:31;;;;;;;10.80;2.90;;;8.30;99.90;;;;;;5051184;28;20210;-74
2023/01/12 07:58:57;;;;;;;6.33;1.40;;;8.30;99.90;;;;;;5051267;28;20252;-74
2023/01/12 08:01:22;;;;;;;4.30;1.00;;;8.40;99.90;;;;;;5050788;28;20702;-75
2023/01/12 08:03:48;;;;;;;7.33;1.10;;;8.40;99.90;;;;;;5051310;28;20185;-73
2023/01/12 08:06:14;;;;;;;3.53;0.93;;;8.50;99.90;;;;;;5051082;28;20233;-74
2023/01/12 08:08:40;;;;;;;4.23;0.80;;;8.50;99.90;;;;;;5051392;28;20188;-74
2023/01/12 08:11:08;;;;;;;4.27;0.93;;;8.50;99.90;;;;;;5050768;28;20458;-73
2023/01/12 08:13:35;;;;;;;6.33;1.37;;;8.50;99.90;;;;;;5053215;28;20777;-74
2023/01/12 08:16:06;;;;;;;10.83;0.93;;;8.50;99.90;;;;;;5054821;28;20918;-74
2023/01/12 08:18:37;;;;;;;9.03;1.20;;;8.60;99.90;;;;;;5054697;28;21002;-74
2023/01/12 08:21:07;;;;;;;9.10;1.47;;;8.60;99.90;;;;;;5054600;28;20436;-73
2023/01/12 08:23:38;;;;;;;9.13;1.10;;;8.60;99.90;;;;;;5054360;28;20508;-74
2023/01/12 08:26:09;;;;;;;9.37;1.27;;;8.70;99.90;;;;;;5054771;28;20436;-75
2023/01/12 08:28:42;;;;;;;3.30;0.83;;;8.70;99.90;;;;;;5054610;28;20411;-75
2023/01/12 08:31:08;;;;;;;4.20;0.73;;;8.70;99.90;;;;;;5054085;28;20431;-74
2023/01/12 08:33:35;;;;;;;4.83;0.97;;;8.70;99.90;;;;;;5054355;28;20424;-76
2023/01/12 08:36:03;;;;;;;14.83;1.33;;;8.70;99.90;;;;;;5054475;28;20414;-75
2023/01/12 08:38:29;;;;;;;5.80;0.90;;;8.70;99.90;;;;;;5054283;28;20423;-74
2023/01/12 08:46:23;;;;;;;4.80;0.90;;;8.70;99.90;;;;;;5054303;28;20411;-75
2023/01/12 08:48:48;;;;;;;6.80;1.30;;;8.70;99.90;;;;;;5036308;28;20427;-74
2023/01/12 08:51:14;;;;;;;5.20;1.07;;;8.70;99.90;;;;;;5053776;28;20213;-73
2023/01/12 08:53:39;;;;;;;4.00;0.90;;;8.70;99.90;;;;;;5054333;28;20711;-74
2023/01/12 08:56:05;;;;;;;12.17;1.23;;;8.70;99.90;;;;;;5053994;28;20679;-75
2023/01/12 08:58:31;;;;;;;9.27;1.60;;;8.70;99.90;;;;;;5054110;28;20195;-75
2023/01/12 09:00:57;;;;;;;11.47;3.47;;;8.70;99.90;;;;;;5054042;28;20916;-76
2023/01/12 09:03:22;;;;;;;9.50;1.07;;;8.80;99.90;;;;;;5053682;28;20181;-74
2023/01/12 09:05:48;;;;;;;6.27;1.30;;;8.80;99.90;;;;;;5053862;28;20908;-74
2023/01/12 09:08:14;;;;;;;4.20;1.00;;;8.80;99.90;;;;;;5053600;28;20185;-73
2023/01/12 09:10:39;;;;;;;13.07;1.60;;;8.80;99.90;;;;;;5053712;28;20180;-73
2023/01/12 09:13:05;;;;;;;7.70;1.20;;;8.90;99.90;;;;;;5053765;28;20220;-75
2023/01/12 09:15:30;;;;;;;7.67;1.50;;;8.90;99.90;;;;;;5053566;28;20195;-75
2023/01/12 09:17:56;;;;;;;3.20;0.90;;;8.80;99.90;;;;;;5053669;28;20185;-75
2023/01/12 09:20:21;;;;;;;4.00;1.00;;;8.80;99.90;;;;;;5053581;28;20231;-75
2023/01/12 09:22:47;;;;;;;5.67;1.10;;;8.80;99.90;;;;;;5053464;28;20267;-75
2023/01/12 09:25:13;;;;;;;9.80;1.43;;;8.80;99.90;;;;;;5053272;28;20177;-74
2023/01/12 09:27:38;;;;;;;3.70;1.03;;;8.80;99.90;;;;;;5053713;28;20188;-75
2023/01/12 09:30:05;;;;;;;11.33;1.20;;;8.90;99.90;;;;;;5053718;28;20181;-74
2023/01/12 09:32:31;;;;;;;7.50;1.57;;;8.90;99.90;;;;;;5052773;28;20296;-74
2023/01/12 09:34:58;;;;;;;8.70;1.90;;;9.00;99.90;;;;;;5053479;28;20491;-75
2023/01/12 09:37:24;;;;;;;4.90;1.40;;;9.00;99.90;;;;;;5035036;28;20478;-76
2023/01/12 09:39:50;;;;;;;5.23;1.50;;;9.00;99.90;;;;;;5053356;28;20411;-74
2023/01/12 09:48:18;;;;;;;4.83;1.00;;;9.10;99.90;;;;;;5053321;28;20410;-75
2023/01/12 09:51:13;;;;;;;10.93;1.37;;;9.10;99.90;;;;;;5053174;28;20425;-74
2023/01/12 09:53:40;;;;;;;5.50;1.30;;;9.20;99.90;;;;;;5035049;28;20443;-75
2023/01/12 09:56:27;;;;;;;3.27;0.67;;;9.20;99.90;;;;;;5053094;28;20446;-75
2023/01/12 09:59:15;;;;;;;5.60;1.00;;;9.30;99.90;;;;;;5052882;28;20498;-75
2023/01/12 10:01:40;;;;;;;3.00;1.40;;;9.40;99.90;;;;;;5052403;28;20423;-75
2023/01/12 10:04:06;;;;;;;5.07;1.20;;;9.50;99.90;;;;;;5052652;28;20458;-74
2023/01/12 10:06:33;;;;;;;8.77;0.97;;;9.50;99.90;;;;;;5052534;28;20693;-74
2023/01/12 10:09:01;;;;;;;5.33;1.20;;;9.50;99.90;;;;;;5052706;28;20649;-74
2023/01/12 10:12:04;;;;;;;8.30;1.00;;;9.60;99.90;;;;;;5051932;28;20468;-74
2023/01/12 10:14:33;;;;;;;5.10;0.97;;;9.60;99.90;;;;;;5052540;28;20436;-75
2023/01/12 10:17:07;;;;;;;5.73;1.00;;;9.70;99.90;;;;;;5052488;28;20430;-74
2023/01/12 10:19:57;;;;;;;2.47;0.97;;;9.70;99.90;;;;;;5045598;28;20415;-75
2023/01/12 10:22:38;;;;;;;9.83;1.67;;;9.80;99.90;;;;;;5039865;28;20527;-75
2023/01/12 10:25:12;;;;;;;4.10;0.80;;;9.80;99.90;;;;;;5040264;28;20466;-74
2023/01/12 10:27:41;;;;;;;4.03;1.00;;;9.80;99.90;;;;;;5044227;28;20410;-74
2023/01/12 10:30:32;;;;;;;5.83;1.33;;;9.80;99.90;;;;;;5041834;28;20408;-74
2023/01/12 10:33:08;;;;;;;4.67;0.90;;;9.90;99.90;;;;;;5043042;28;20464;-73
2023/01/12 10:35:34;;;;;;;6.53;0.80;;;9.90;99.90;;;;;;5014855;28;20435;-74
2023/01/12 10:37:59;;;;;;;4.20;0.90;;;10.00;99.90;;;;;;5033596;28;20420;-74
2023/01/12 10:40:31;;;;;;;5.37;1.10;;;10.10;99.90;;;;;;5032802;28;20208;-75
2023/01/12 10:43:17;;;;;;;7.57;0.80;;;10.10;99.90;;;;;;5032397;28;20201;-75
2023/01/12 10:45:43;;;;;;;6.93;1.37;;;10.10;99.90;;;;;;5040256;28;20446;-74
2023/01/12 10:48:20;;;;;;;5.63;0.83;;;10.10;99.90;;;;;;5037515;28;20428;-73
2023/01/12 10:51:00;;;;;;;5.83;1.00;;;10.00;99.90;;;;;;5042100;28;20698;-73
2023/01/12 10:53:30;;;;;;;4.20;1.00;;;9.90;99.90;;;;;;5039673;28;20493;-73
2023/01/12 10:55:58;;;;;;;8.50;1.13;;;9.90;99.90;;;;;;5038340;28;20452;-74
2023/01/12 10:58:30;;;;;;;9.20;1.37;;;10.00;99.90;;;;;;5024979;28;20460;-72
2023/01/12 11:00:57;;;;;;;4.43;0.90;;;10.00;99.90;;;;;;5040589;28;20524;-73
2023/01/12 11:03:31;;;;;;;3.07;0.93;;;10.00;99.90;;;;;;5038143;28;20417;-72
2023/01/12 11:06:15;;;;;;;4.97;0.80;;;10.10;99.90;;;;;;5032086;28;20470;-73
2023/01/12 11:08:41;;;;;;;5.87;0.90;;;10.10;99.90;;;;;;5014542;28;20963;-73
2023/01/12 11:11:27;;;;;;;4.70;1.00;;;10.10;99.90;;;;;;5031813;28;20816;-72
2023/01/12 11:13:56;;;;;;;6.20;1.17;;;10.10;99.90;;;;;;5031903;28;20447;-74
2023/01/12 11:16:25;;;;;;;3.47;0.80;;;10.10;99.90;;;;;;5014302;28;20929;-73
2023/01/12 11:19:28;;;;;;;2.90;0.73;;;10.10;99.90;;;;;;5031753;28;20416;-74
2023/01/12 11:22:00;;;;;;;2.93;0.73;;;10.10;99.90;;;;;;5031368;28;20472;-74
2023/01/12 11:24:47;;;;;;;4.27;0.97;;;10.10;99.90;;;;;;5031526;28;21010;-75
2023/01/12 11:27:21;;;;;;;2.77;0.90;;;10.10;99.90;;;;;;5031658;28;20412;-75
2023/01/12 11:29:49;;;;;;;4.20;1.27;;;10.10;99.90;;;;;;5031578;28;20416;-74
2023/01/12 11:32:19;;;;;;;3.67;0.73;;;10.10;99.90;;;;;;5030869;28;20852;-74
2023/01/12 11:35:36;;;;;;;3.30;0.70;;;10.10;99.90;;;;;;5031376;28;20420;-75
2023/01/12 11:38:12;;;;;;;2.50;0.70;;;10.10;99.90;;;;;;4932014;29;20520;-75
2023/01/12 11:40:40;;;;;;;1.53;0.80;;;10.10;99.90;;;;;;4932099;29;20434;-75
2023/01/12 11:43:55;;;;;;;3.13;0.70;;;10.20;99.90;;;;;;4995549;28;20971;-74
2023/01/12 11:46:31;;;;;;;4.07;0.70;;;10.30;99.90;;;;;;5036650;28;20610;-74
2023/01/12 11:49:11;;;;;;;3.70;0.63;;;10.40;99.90;;;;;;5052328;28;21032;-73
2023/01/12 11:51:37;;;;;;;5.60;0.70;;;10.50;99.90;;;;;;5049749;28;20471;-73
2023/01/12 11:54:05;;;;;;;1.53;0.60;;;10.60;99.90;;;;;;5059739;28;20423;-75
2023/01/12 11:57:12;;;;;;;3.13;1.00;;;10.70;99.90;;;;;;5053150;28;20545;-75
2023/01/12 11:59:55;;;;;;;2.07;0.97;;;10.70;99.90;;;;;;5027744;28;20978;-74
2023/01/12 12:02:45;;;;;;;2.60;0.70;;;10.80;99.90;;;;;;5048532;28;20500;-75
2023/01/12 12:05:39;;;;;;;2.60;0.70;;;10.70;99.90;;;;;;5052736;28;20442;-74
2023/01/12 12:08:14;;;;;;;6.73;0.87;;;10.60;99.90;;;;;;5054570;28;20510;-75
2023/01/12 12:11:08;;;;;;;2.10;0.93;;;10.50;99.90;;;;;;5054856;28;20544;-74
2023/01/12 12:13:46;;;;;;;4.70;0.70;;;10.30;99.90;;;;;;5045297;28;20534;-76
2023/01/12 12:16:38;;;;;;;2.50;0.60;;;10.30;99.90;;;;;;5054582;28;20415;-75
2023/01/12 12:19:16;;;;;;;1.83;0.43;;;10.30;99.90;;;;;;5054470;28;20769;-75
2023/01/12 12:21:56;;;;;;;3.87;0.90;;;10.30;99.90;;;;;;5054368;28;20436;-75
2023/01/12 12:24:24;;;;;;;5.63;0.70;;;10.50;99.90;;;;;;5039866;28;20423;-73
2023/01/12 12:27:06;;;;;;;1.57;0.50;;;10.60;99.90;;;;;;5054641;28;20408;-76
2023/01/12 12:30:03;;;;;;;2.40;0.50;;;10.50;99.90;;;;;;5054148;28;20480;-75
2023/01/12 12:32:54;;;;;;;11.03;0.77;;;10.60;99.90;;;;;;5053266;28;20521;-74
2023/01/12 12:35:33;;;;;;;2.60;0.60;;;10.60;99.90;;;;;;5053820;28;20438;-75
2023/01/12 12:38:40;;;;;;;3.67;0.80;;;10.60;99.90;;;;;;5053393;28;20757;-74
2023/01/12 12:45:16;;;;;;;3.03;0.80;;;10.60;99.90;;;;;;5053880;28;20787;-76
2023/01/12 12:47:48;;;;;;;3.43;0.50;;;10.60;99.90;;;;;;5023839;28;20455;-74
2023/01/12 12:50:40;;;;;;;3.00;0.70;;;10.60;99.90;;;;;;5053682;28;20800;-74
2023/01/12 12:53:28;;;;;;;8.03;0.90;;;10.50;99.90;;;;;;5053917;28;20521;-74
2023/01/12 12:55:57;;;;;;;3.07;0.60;;;10.50;99.90;;;;;;5051063;28;20466;-73
2023/01/12 12:58:22;;;;;;;2.50;0.50;;;10.50;99.90;;;;;;5047938;28;20853;-73
2023/01/12 13:00:50;;;;;;;1.87;0.60;;;10.50;99.90;;;;;;5053087;28;20458;-73
2023/01/12 13:03:40;;;;;;;2.53;0.60;;;10.50;99.90;;;;;;5044471;28;20273;-76
2023/01/12 13:06:33;;;;;;;1.90;0.60;;;10.50;99.90;;;;;;5053730;28;20506;-77
2023/01/12 13:09:15;;;;;;;1.00;0.50;;;10.50;99.90;;;;;;5053121;28;20431;-76
2023/01/12 13:11:56;;;;;;;1.73;0.60;;;10.50;99.90;;;;;;5052981;28;20467;-74
2023/01/12 13:14:37;;;;;;;1.10;0.60;;;10.50;99.90;;;;;;5046305;28;20920;-76
2023/01/12 13:17:22;;;;;;;1.93;0.60;;;10.50;99.90;;;;;;5053209;28;20420;-75
2023/01/12 13:20:10;;;;;;;4.00;0.60;;;10.50;99.90;;;;;;5053750;28;20407;-74
2023/01/12 13:22:50;;;;;;;2.23;0.73;;;10.50;99.90;;;;;;5034699;28;20522;-74
2023/01/12 13:25:15;;;;;;;2.80;0.53;;;10.50;99.90;;;;;;5053379;28;20848;-74
2023/01/12 13:27:47;;;;;;;1.50;0.70;;;10.50;99.90;;;;;;5053251;28;20494;-74
2023/01/12 13:30:21;;;;;;;3.50;0.53;;;10.40;99.90;;;;;;5052679;28;20181;-73
2023/01/12 13:33:05;;;;;;;1.67;0.60;;;10.40;99.90;;;;;;5049899;28;20479;-74
2023/01/12 13:35:33;;;;;;;1.53;0.77;;;10.50;99.90;;;;;;5029898;28;20412;-73
2023/01/12 13:38:23;;;;;;;1.07;0.50;;;10.40;99.90;;;;;;5031756;28;20455;-74
2023/01/12 13:40:49;;;;;;;1.10;0.50;;;10.40;99.90;;;;;;5018782;28;20947;-73
2023/01/12 13:43:26;;;;;;;2.60;0.50;;;10.40;99.90;;;;;;5051760;28;20787;-73
2023/01/12 13:45:56;;;;;;;2.20;0.50;;;10.40;99.90;;;;;;5051812;28;20803;-74
2023/01/12 13:48:23;;;;;;;3.00;0.50;;;10.40;99.90;;;;;;5034688;28;20502;-74
2023/01/12 13:51:00;;;;;;;1.23;0.50;;;10.30;99.90;;;;;;5052688;28;20507;-74
2023/01/12 13:53:28;;;;;;;1.90;0.60;;;10.30;99.90;;;;;;5052921;28;20475;-73
2023/01/12 13:56:00;;;;;;;2.57;0.67;;;10.30;99.90;;;;;;5053135;28;20443;-73
2023/01/12 13:58:27;;;;;;;2.50;0.70;;;10.30;99.90;;;;;;5053107;28;20482;-73
2023/01/12 14:00:58;;;;;;;2.77;0.53;;;10.40;99.90;;;;;;5052260;28;20825;-74
2023/01/12 14:03:46;;;;;;;3.17;0.60;;;10.30;99.90;;;;;;5033735;28;20458;-74
2023/01/12 14:06:35;;;;;;;1.30;0.60;;;10.40;99.90;;;;;;5033580;28;20415;-73
2023/01/12 14:09:36;;;;;;;2.37;0.50;;;10.40;99.90;;;;;;5032802;28;20965;-73
2023/01/12 14:12:13;;;;;;;1.97;1.07;;;10.40;99.90;;;;;;5045160;28;20582;-74
2023/01/12 14:18:06;;;;;;;2.47;0.63;;;10.30;99.90;;;;;;5052414;28;20454;-74
2023/01/12 14:20:47;;;;;;;1.73;0.60;;;10.30;99.90;;;;;;5052241;28;20817;-74
2023/01/12 14:23:13;;;;;;;2.40;0.70;;;10.20;99.90;;;;;;5051570;28;20493;-73
2023/01/12 14:25:38;;;;;;;2.10;0.50;;;10.20;99.90;;;;;;5052335;28;20412;-73
2023/01/12 14:28:04;;;;;;;1.93;0.50;;;10.20;99.90;;;;;;5052054;28;20418;-73
2023/01/12 14:30:31;;;;;;;1.40;0.73;;;10.10;99.90;;;;;;5051895;28;20599;-73
2023/01/12 14:32:56;;;;;;;5.07;0.90;;;10.10;99.90;;;;;;5051627;28;20212;-73
2023/01/12 14:35:24;;;;;;;1.00;0.60;;;10.10;99.90;;;;;;5052093;28;20412;-73
2023/01/12 14:37:54;;;;;;;4.83;0.90;;;10.10;99.90;;;;;;5051941;28;20183;-74
2023/01/12 14:40:31;;;;;;;5.70;0.60;;;10.10;99.90;;;;;;5051749;28;20999;-73
2023/01/12 14:49:18;;;;;;;1.70;0.63;;;10.10;99.90;;;;;;5057019;28;20442;-73
2023/01/12 14:52:16;;;;;;;5.77;0.63;;;10.20;99.90;;;;;;5045362;28;20456;-74
2023/01/12 14:54:42;;;;;;;11.07;0.80;;;10.10;99.90;;;;;;5031751;28;20431;-74
2023/01/12 14:57:33;;;;;;;7.40;0.60;;;10.10;99.90;;;;;;5051628;28;20894;-74
2023/01/12 15:00:01;;;;;;;1.20;0.40;;;10.10;99.90;;;;;;5051765;28;20172;-73
2023/01/12 15:02:41;;;;;;;1.93;0.80;;;10.10;99.90;;;;;;5050743;28;20447;-74
2023/01/12 15:05:09;;;;;;;3.57;0.80;;;10.10;99.90;;;;;;5051132;28;20496;-74
2023/01/12 15:07:37;;;;;;;1.70;0.60;;;10.10;99.90;;;;;;5051175;28;20497;-74
2023/01/12 15:10:09;;;;;;;3.10;0.50;;;10.10;99.90;;;;;;5050951;28;20785;-74
2023/01/12 15:12:37;;;;;;;1.37;0.50;;;10.10;99.90;;;;;;5045170;28;20516;-73
2023/01/12 15:15:23;;;;;;;1.40;0.50;;;10.10;99.90;;;;;;5051268;28;20509;-74
2023/01/12 15:26:17;;;;;;;0.80;0.50;;;10.00;99.90;;;;;;5051593;28;20426;-73
2023/01/12 15:28:44;;;;;;;2.90;0.63;;;10.00;99.90;;;;;;5033461;28;20417;-73
2023/01/12 15:31:15;;;;;;;2.30;0.50;;;10.00;99.90;;;;;;5050755;28;20479;-73
2023/01/12 15:33:41;;;;;;;4.00;0.50;;;10.00;99.90;;;;;;5051049;28;20503;-73